Time;durP1;ratioP1;P1;durP2;ratioP2;P2;SDS_P1;SDS_P2;PMS_P1;PMS_P2;Temp;Humidity;BMP_temperature;BMP_pressure;BME280_temperature;BME280_humidity;BME280_pressure;Samples;Min_cycle;Max_cycle;Signal;HPM_P1;HPM_P2
2022/01/29 00:01:03;;;;;;;24.55;9.98;;;7.10;99.90;;;;;;5016896;28;20030;-68
2022/01/29 00:03:32;;;;;;;29.23;10.07;;;7.20;99.90;;;;;;5019062;28;20029;-69
2022/01/29 00:05:59;;;;;;;29.92;9.75;;;7.20;99.90;;;;;;5021481;28;20029;-68
2022/01/29 00:08:25;;;;;;;33.67;11.77;;;7.30;99.90;;;;;;5012819;28;20037;-67
2022/01/29 00:10:55;;;;;;;23.65;9.10;;;7.20;99.90;;;;;;5018609;28;20417;-70
2022/01/29 00:13:21;;;;;;;26.90;9.45;;;7.20;99.90;;;;;;5018818;28;20030;-68
2022/01/29 00:15:46;;;;;;;25.42;9.32;;;7.20;99.90;;;;;;5021810;28;20040;-68
2022/01/29 00:18:12;;;;;;;31.42;11.18;;;7.20;99.90;;;;;;5017634;28;20109;-68
2022/01/29 00:20:38;;;;;;;26.42;10.43;;;7.20;99.90;;;;;;5020196;28;20397;-68
2022/01/29 00:23:04;;;;;;;25.75;9.20;;;7.10;99.90;;;;;;5019359;28;20037;-68
2022/01/29 00:25:29;;;;;;;26.55;10.30;;;7.10;99.90;;;;;;5021645;28;20033;-68
2022/01/29 00:27:56;;;;;;;28.08;9.60;;;7.10;99.90;;;;;;5014252;28;20496;-68
2022/01/29 00:30:29;;;;;;;23.30;9.68;;;7.10;99.90;;;;;;5024547;28;20123;-69
2022/01/29 00:32:55;;;;;;;28.02;10.80;;;7.10;99.90;;;;;;5028060;28;20052;-70
2022/01/29 00:35:20;;;;;;;32.58;10.82;;;7.10;99.90;;;;;;5025196;28;20116;-68
2022/01/29 00:37:47;;;;;;;31.65;10.27;;;7.10;99.90;;;;;;5027993;28;20036;-68
2022/01/29 00:40:13;;;;;;;31.80;11.30;;;7.10;99.90;;;;;;5027553;28;20026;-67
2022/01/29 00:42:39;;;;;;;28.77;11.13;;;7.00;99.90;;;;;;5028841;28;20034;-68
2022/01/29 00:45:06;;;;;;;28.20;10.95;;;7.00;99.90;;;;;;5016707;28;20095;-68
2022/01/29 00:47:32;;;;;;;26.17;10.70;;;7.00;99.90;;;;;;5025647;28;20038;-68
2022/01/29 00:49:57;;;;;;;23.63;10.38;;;7.00;99.90;;;;;;5027261;28;20048;-67
2022/01/29 00:52:23;;;;;;;25.75;9.38;;;6.90;99.90;;;;;;5025227;28;20524;-67
2022/01/29 00:54:49;;;;;;;32.35;9.15;;;6.90;99.90;;;;;;5027892;28;20226;-67
2022/01/29 00:57:14;;;;;;;29.65;9.60;;;7.00;99.90;;;;;;5017593;28;20041;-68
2022/01/29 00:59:40;;;;;;;31.60;9.30;;;7.00;99.90;;;;;;5028225;28;20045;-70
2022/01/29 01:02:08;;;;;;;21.52;8.68;;;7.00;99.90;;;;;;5025874;28;20132;-68
2022/01/29 01:04:36;;;;;;;26.77;9.13;;;7.10;99.90;;;;;;5025601;28;20045;-68
2022/01/29 01:07:02;;;;;;;33.28;10.18;;;7.10;99.90;;;;;;5026851;28;20037;-67
2022/01/29 01:09:28;;;;;;;20.63;8.20;;;7.10;99.90;;;;;;5018590;28;20037;-68
2022/01/29 01:11:53;;;;;;;17.98;8.40;;;7.10;99.90;;;;;;5027268;28;20037;-69
2022/01/29 01:14:19;;;;;;;23.48;9.25;;;7.10;99.90;;;;;;5024355;28;20065;-67
2022/01/29 01:16:44;;;;;;;27.38;7.55;;;7.10;99.90;;;;;;5018182;28;20036;-68
2022/01/29 01:19:10;;;;;;;25.15;9.27;;;7.10;99.90;;;;;;5027683;28;20046;-68
2022/01/29 01:21:35;;;;;;;35.65;9.35;;;7.20;99.90;;;;;;5026582;28;20030;-67
2022/01/29 01:24:01;;;;;;;29.95;8.07;;;7.20;99.90;;;;;;5027953;28;20038;-68
2022/01/29 01:26:27;;;;;;;16.80;6.65;;;7.20;99.90;;;;;;5007589;28;20037;-68
2022/01/29 01:28:52;;;;;;;22.27;8.45;;;7.20;99.90;;;;;;5023364;28;20088;-70
2022/01/29 01:31:18;;;;;;;25.98;7.10;;;7.20;99.90;;;;;;5024405;28;20034;-69
2022/01/29 01:33:44;;;;;;;16.58;6.90;;;7.20;99.90;;;;;;5007238;28;20038;-68
2022/01/29 01:36:10;;;;;;;18.75;7.70;;;7.20;99.90;;;;;;5027143;28;20029;-68
2022/01/29 01:38:55;;;;;;;18.42;7.00;;;7.20;99.90;;;;;;5026505;28;20029;-68
2022/01/29 01:41:25;;;;;;;20.55;8.25;;;7.20;99.90;;;;;;5030943;28;20037;-70
2022/01/29 01:43:51;;;;;;;26.00;8.13;;;7.20;99.90;;;;;;5011494;28;20125;-72
2022/01/29 01:46:17;;;;;;;22.92;7.00;;;7.20;99.90;;;;;;5025040;28;20061;-68
2022/01/29 01:48:42;;;;;;;19.45;7.18;;;7.20;99.90;;;;;;5012209;28;20553;-68
2022/01/29 01:51:08;;;;;;;22.67;7.43;;;7.20;99.90;;;;;;5018978;28;20050;-70
2022/01/29 01:53:34;;;;;;;28.05;7.55;;;7.20;99.90;;;;;;5019408;28;20061;-68
2022/01/29 01:56:00;;;;;;;25.80;9.23;;;7.30;99.90;;;;;;5021384;28;20537;-68
2022/01/29 01:58:25;;;;;;;19.27;6.72;;;7.30;99.90;;;;;;5025818;28;20040;-68
2022/01/29 02:00:51;;;;;;;15.93;7.72;;;7.20;99.90;;;;;;5016860;28;20426;-70
2022/01/29 02:03:17;;;;;;;22.92;7.85;;;7.30;99.90;;;;;;5024688;28;20060;-68
2022/01/29 02:05:44;;;;;;;17.05;7.95;;;7.30;99.90;;;;;;5020801;28;20485;-68
2022/01/29 02:08:11;;;;;;;17.65;7.07;;;7.30;99.90;;;;;;5020223;28;20402;-68
2022/01/29 02:10:37;;;;;;;16.00;6.75;;;7.30;99.90;;;;;;5022473;28;20034;-70
2022/01/29 02:13:04;;;;;;;23.10;7.35;;;7.30;99.90;;;;;;5018085;28;20481;-69
2022/01/29 02:15:31;;;;;;;19.25;7.03;;;7.30;99.90;;;;;;5024880;28;20401;-68
2022/01/29 02:17:57;;;;;;;16.85;7.03;;;7.40;99.90;;;;;;5028282;28;20482;-68
2022/01/29 02:20:30;;;;;;;21.90;6.78;;;7.40;99.90;;;;;;5027935;28;20044;-68
2022/01/29 02:22:57;;;;;;;16.73;6.45;;;7.40;99.90;;;;;;5017124;28;20600;-70
2022/01/29 02:25:33;;;;;;;16.55;6.38;;;7.40;99.90;;;;;;5019890;28;20122;-68
2022/01/29 02:28:00;;;;;;;14.77;6.82;;;7.40;99.90;;;;;;5021450;28;20066;-69
2022/01/29 02:30:29;;;;;;;20.38;6.18;;;7.40;99.90;;;;;;5026574;28;20651;-70
2022/01/29 02:32:55;;;;;;;13.55;5.88;;;7.40;99.90;;;;;;5025065;28;20034;-71
2022/01/29 02:35:21;;;;;;;15.00;5.93;;;7.50;99.90;;;;;;5020250;28;20120;-68
2022/01/29 02:37:51;;;;;;;19.33;7.18;;;7.50;99.90;;;;;;5024224;28;20456;-70
2022/01/29 02:40:22;;;;;;;15.60;6.28;;;7.50;99.90;;;;;;5020152;28;20053;-68
2022/01/29 02:42:49;;;;;;;15.88;6.15;;;7.60;99.90;;;;;;5020059;28;20080;-68
2022/01/29 02:45:14;;;;;;;16.25;6.72;;;7.60;99.90;;;;;;5019905;28;20045;-68
2022/01/29 02:47:40;;;;;;;15.57;7.00;;;7.70;99.90;;;;;;5027548;28;20030;-68
2022/01/29 02:50:07;;;;;;;21.77;7.80;;;7.70;99.90;;;;;;5020172;28;20038;-69
2022/01/29 02:52:33;;;;;;;14.32;6.13;;;7.70;99.90;;;;;;5012091;28;20112;-68
2022/01/29 02:54:59;;;;;;;13.30;6.25;;;7.70;99.90;;;;;;5023442;28;20050;-68
2022/01/29 02:57:25;;;;;;;17.73;6.05;;;7.70;99.90;;;;;;5018629;28;20481;-70
2022/01/29 02:59:51;;;;;;;18.73;7.68;;;7.70;99.90;;;;;;5024216;28;20038;-70
2022/01/29 03:02:17;;;;;;;17.00;5.75;;;7.80;99.90;;;;;;5027629;28;20542;-68
2022/01/29 03:04:43;;;;;;;15.55;6.63;;;7.80;99.90;;;;;;5014036;28;20501;-69
2022/01/29 03:07:08;;;;;;;19.38;7.82;;;7.80;99.90;;;;;;5020668;28;20034;-67
2022/01/29 03:09:34;;;;;;;17.13;6.88;;;7.80;99.90;;;;;;5011630;28;20525;-68
2022/01/29 03:12:00;;;;;;;20.65;7.13;;;7.80;99.90;;;;;;5020639;28;20049;-68
2022/01/29 03:14:25;;;;;;;14.50;6.88;;;7.80;99.90;;;;;;5021141;28;20390;-68
2022/01/29 03:16:51;;;;;;;17.65;7.20;;;7.90;99.90;;;;;;5019618;28;20033;-71
2022/01/29 03:19:16;;;;;;;18.23;7.00;;;7.90;99.90;;;;;;5023257;28;20030;-67
2022/01/29 03:21:42;;;;;;;20.70;6.45;;;7.90;99.90;;;;;;5022670;28;20092;-68
2022/01/29 03:24:07;;;;;;;19.35;6.10;;;7.90;99.90;;;;;;5010006;28;20084;-68
2022/01/29 03:26:33;;;;;;;20.85;5.90;;;7.90;99.90;;;;;;5023954;28;20237;-68
2022/01/29 03:28:58;;;;;;;19.95;6.32;;;7.90;99.90;;;;;;5018499;28;20056;-68
2022/01/29 03:31:26;;;;;;;18.77;6.10;;;7.90;99.90;;;;;;5024408;28;20097;-70
2022/01/29 03:33:52;;;;;;;14.40;5.88;;;7.90;99.90;;;;;;5018145;28;20555;-68
2022/01/29 03:36:18;;;;;;;26.95;7.18;;;7.90;99.90;;;;;;5022745;28;20037;-68
2022/01/29 03:38:44;;;;;;;15.98;5.97;;;7.90;99.90;;;;;;5022777;28;20073;-68
2022/01/29 03:41:12;;;;;;;17.92;6.10;;;7.90;99.90;;;;;;5022834;28;20026;-68
2022/01/29 03:43:44;;;;;;;22.90;7.40;;;7.90;99.90;;;;;;5026889;28;20506;-67
2022/01/29 03:46:10;;;;;;;21.23;6.45;;;7.90;99.90;;;;;;5018908;28;20037;-68
2022/01/29 03:48:35;;;;;;;19.98;5.38;;;8.00;99.90;;;;;;5023495;28;20045;-69
2022/01/29 03:51:01;;;;;;;16.08;6.07;;;8.00;99.90;;;;;;5016900;28;20038;-67
2022/01/29 03:53:26;;;;;;;19.02;5.93;;;8.00;99.90;;;;;;5020832;28;20034;-68
2022/01/29 03:55:52;;;;;;;26.35;6.15;;;8.00;99.90;;;;;;5020026;28;20053;-67
2022/01/29 03:58:17;;;;;;;17.52;6.32;;;8.10;99.90;;;;;;5022354;28;20042;-68
2022/01/29 04:00:43;;;;;;;19.27;6.63;;;8.00;99.90;;;;;;5012309;28;20037;-67
2022/01/29 04:03:09;;;;;;;17.75;5.35;;;8.10;99.90;;;;;;5018128;28;20397;-68
2022/01/29 04:05:34;;;;;;;23.75;5.70;;;8.10;99.90;;;;;;5021513;28;20052;-70
2022/01/29 04:08:00;;;;;;;22.48;5.38;;;8.10;99.90;;;;;;5021620;28;20053;-67
2022/01/29 04:10:28;;;;;;;16.77;5.30;;;8.10;99.90;;;;;;5024323;28;20116;-68
2022/01/29 04:12:54;;;;;;;19.40;5.65;;;8.10;99.90;;;;;;5023712;28;20076;-69
2022/01/29 04:15:20;;;;;;;13.50;4.35;;;8.10;99.90;;;;;;5022320;28;20103;-68
2022/01/29 04:17:45;;;;;;;16.73;4.65;;;8.20;99.90;;;;;;5021975;28;20489;-68
2022/01/29 04:20:11;;;;;;;16.35;4.63;;;8.20;99.90;;;;;;5017736;28;20096;-68
2022/01/29 04:22:37;;;;;;;18.08;5.63;;;8.20;99.90;;;;;;5018525;28;20030;-68
2022/01/29 04:25:03;;;;;;;15.10;5.50;;;8.20;99.90;;;;;;5011124;28;20042;-68
2022/01/29 04:27:37;;;;;;;12.98;4.40;;;8.20;99.90;;;;;;5021818;28;20033;-68
2022/01/29 04:30:09;;;;;;;14.63;4.47;;;8.30;99.90;;;;;;5018169;28;20493;-68
2022/01/29 04:35:06;;;;;;;15.05;4.53;;;8.30;99.90;;;;;;5022064;28;20042;-69
2022/01/29 04:37:32;;;;;;;17.60;4.47;;;8.30;99.90;;;;;;5018754;28;20468;-67
2022/01/29 04:39:58;;;;;;;16.75;5.20;;;8.40;99.90;;;;;;5010481;28;20050;-67
2022/01/29 04:42:23;;;;;;;14.77;5.13;;;8.40;99.90;;;;;;5027747;28;20401;-68
2022/01/29 04:44:49;;;;;;;7.10;3.92;;;8.40;99.90;;;;;;5019258;28;20034;-69
2022/01/29 04:47:14;;;;;;;10.65;3.97;;;8.40;99.90;;;;;;5020800;28;20661;-68
2022/01/29 04:49:40;;;;;;;18.30;4.25;;;8.50;99.90;;;;;;5018292;28;20042;-67
2022/01/29 04:52:06;;;;;;;13.13;3.80;;;8.50;99.90;;;;;;5020888;28;20034;-69
2022/01/29 04:54:32;;;;;;;20.42;5.63;;;8.40;99.90;;;;;;5018716;28;20614;-68
2022/01/29 04:56:58;;;;;;;15.40;3.75;;;8.50;99.90;;;;;;5020190;28;20037;-70
2022/01/29 04:59:24;;;;;;;12.70;3.80;;;8.50;99.90;;;;;;5019729;28;20029;-69
2022/01/29 05:01:50;;;;;;;12.65;3.80;;;8.50;99.90;;;;;;5017960;28;20093;-68
2022/01/29 05:04:15;;;;;;;16.05;4.43;;;8.50;99.90;;;;;;5021932;28;20044;-68
2022/01/29 05:06:41;;;;;;;11.52;4.13;;;8.60;99.90;;;;;;5012005;28;20045;-68
2022/01/29 05:09:08;;;;;;;13.00;4.22;;;8.60;99.90;;;;;;5007933;28;20485;-68
2022/01/29 05:11:36;;;;;;;8.50;2.70;;;8.60;99.90;;;;;;5017492;28;20080;-67
2022/01/29 05:14:05;;;;;;;8.82;3.55;;;8.60;99.90;;;;;;5011042;28;20132;-68
2022/01/29 05:16:57;;;;;;;11.68;4.72;;;8.60;99.90;;;;;;5022155;28;20145;-67
2022/01/29 05:27:36;;;;;;;12.82;3.75;;;8.70;99.90;;;;;;5021738;28;20041;-68
2022/01/29 05:30:02;;;;;;;8.38;4.15;;;8.70;99.90;;;;;;5020501;28;20034;-68
2022/01/29 05:32:27;;;;;;;15.07;3.92;;;8.60;99.90;;;;;;5014111;28;20165;-69
2022/01/29 05:34:53;;;;;;;11.07;3.70;;;8.60;99.90;;;;;;5012673;28;20044;-68
2022/01/29 05:37:18;;;;;;;10.25;3.38;;;8.60;99.90;;;;;;5012931;28;20034;-69
2022/01/29 05:39:44;;;;;;;8.35;3.40;;;8.70;99.90;;;;;;5024238;28;20545;-68
2022/01/29 05:42:10;;;;;;;8.75;3.90;;;8.60;99.90;;;;;;5031516;28;20036;-68
2022/01/29 05:44:35;;;;;;;10.90;3.90;;;8.60;99.90;;;;;;5024634;28;20044;-70
2022/01/29 05:47:01;;;;;;;9.43;3.67;;;8.70;99.90;;;;;;5021037;28;20030;-67
2022/01/29 05:49:26;;;;;;;9.13;3.65;;;8.60;99.90;;;;;;5025175;28;20128;-67
2022/01/29 05:51:52;;;;;;;16.17;4.22;;;8.60;99.90;;;;;;5022781;28;20030;-68
2022/01/29 05:54:18;;;;;;;11.07;3.58;;;8.60;99.90;;;;;;5022781;28;20624;-70
2022/01/29 05:56:43;;;;;;;13.20;4.22;;;8.60;99.90;;;;;;5012004;28;20038;-68
2022/01/29 05:59:09;;;;;;;16.67;4.05;;;8.60;99.90;;;;;;5023521;28;20033;-68
2022/01/29 06:01:34;;;;;;;14.30;3.47;;;8.60;99.90;;;;;;5010842;28;20034;-68
2022/01/29 06:04:00;;;;;;;17.48;3.90;;;8.60;99.90;;;;;;5023501;28;20033;-69
2022/01/29 06:06:26;;;;;;;11.82;3.63;;;8.60;99.90;;;;;;5020268;28;20670;-67
2022/01/29 06:08:51;;;;;;;10.77;4.13;;;8.60;99.90;;;;;;5012853;28;20038;-68
2022/01/29 06:11:17;;;;;;;15.18;3.88;;;8.60;99.90;;;;;;5021156;28;20026;-68
2022/01/29 06:13:43;;;;;;;9.00;4.00;;;8.60;99.90;;;;;;5023355;28;20037;-67
2022/01/29 06:16:09;;;;;;;12.52;4.22;;;8.60;99.90;;;;;;5016875;28;20065;-68
2022/01/29 06:18:34;;;;;;;21.38;4.60;;;8.60;99.90;;;;;;5014442;28;20069;-68
2022/01/29 06:21:08;;;;;;;8.00;3.28;;;8.60;99.90;;;;;;5020064;28;20034;-69
2022/01/29 06:23:36;;;;;;;11.95;4.25;;;8.60;99.90;;;;;;5023961;28;20029;-68
2022/01/29 06:26:06;;;;;;;11.35;4.53;;;8.50;99.90;;;;;;5019504;28;20117;-68
2022/01/29 06:28:32;;;;;;;11.07;3.88;;;8.60;99.90;;;;;;5022808;28;20106;-68
2022/01/29 06:30:59;;;;;;;11.60;4.30;;;8.60;99.90;;;;;;5020384;28;20030;-68
2022/01/29 06:33:24;;;;;;;20.88;5.93;;;8.50;99.90;;;;;;5020395;28;20039;-68
2022/01/29 06:35:50;;;;;;;13.27;4.18;;;8.50;99.90;;;;;;5016222;28;20120;-68
2022/01/29 06:38:16;;;;;;;14.57;3.92;;;8.50;99.90;;;;;;5021335;28;20033;-68
2022/01/29 06:40:42;;;;;;;11.50;3.92;;;8.50;99.90;;;;;;5012548;28;20048;-68
2022/01/29 06:43:09;;;;;;;16.25;5.60;;;8.50;99.90;;;;;;5026374;28;20184;-69
2022/01/29 06:45:36;;;;;;;12.38;4.32;;;8.40;99.90;;;;;;5013882;28;20303;-69
2022/01/29 06:48:02;;;;;;;14.68;5.38;;;8.50;99.90;;;;;;5019644;28;20504;-68
2022/01/29 06:50:28;;;;;;;14.70;4.00;;;8.50;99.90;;;;;;5022937;28;20037;-68
2022/01/29 06:52:54;;;;;;;13.15;4.75;;;8.50;99.90;;;;;;5020232;28;20048;-69
2022/01/29 06:55:21;;;;;;;14.25;4.50;;;8.50;99.90;;;;;;5022091;28;20500;-68
2022/01/29 06:57:46;;;;;;;13.80;4.75;;;8.50;99.90;;;;;;5021422;28;20622;-69
2022/01/29 07:00:13;;;;;;;11.20;3.95;;;8.50;99.90;;;;;;5020355;28;20030;-67
2022/01/29 07:02:38;;;;;;;13.18;4.60;;;8.50;99.90;;;;;;5022170;28;20068;-69
2022/01/29 07:05:06;;;;;;;16.27;4.45;;;8.50;99.90;;;;;;5019058;28;20475;-68
2022/01/29 07:07:32;;;;;;;11.80;4.40;;;8.50;99.90;;;;;;5019559;28;20383;-67
2022/01/29 07:09:57;;;;;;;17.77;4.55;;;8.50;99.90;;;;;;5021945;28;20030;-68
2022/01/29 07:12:24;;;;;;;11.43;3.95;;;8.50;99.90;;;;;;5019139;28;20113;-68
2022/01/29 07:14:49;;;;;;;11.38;3.58;;;8.50;99.90;;;;;;5021621;28;20122;-68
2022/01/29 07:17:17;;;;;;;16.23;3.90;;;8.60;99.90;;;;;;5011286;28;20120;-68
2022/01/29 07:19:44;;;;;;;10.60;3.95;;;8.60;99.90;;;;;;5011399;28;20034;-68
2022/01/29 07:22:10;;;;;;;11.48;3.88;;;8.60;99.90;;;;;;5020977;28;20037;-68
2022/01/29 07:24:36;;;;;;;9.70;4.15;;;8.60;99.90;;;;;;5019399;28;20042;-68
2022/01/29 07:27:03;;;;;;;17.48;4.30;;;8.60;99.90;;;;;;5022611;28;20091;-68
2022/01/29 07:29:29;;;;;;;17.50;5.07;;;8.60;99.90;;;;;;5019167;28;20478;-69
2022/01/29 07:31:58;;;;;;;19.08;4.25;;;8.60;99.90;;;;;;5012289;28;20076;-69
2022/01/29 07:34:25;;;;;;;17.90;4.95;;;8.60;99.90;;;;;;5009738;28;20053;-69
2022/01/29 07:36:55;;;;;;;10.02;3.85;;;8.60;99.90;;;;;;5021052;28;20064;-68
2022/01/29 07:39:23;;;;;;;15.35;4.38;;;8.70;99.90;;;;;;5019097;28;20034;-68
2022/01/29 07:41:49;;;;;;;14.95;3.80;;;8.70;99.90;;;;;;5030018;28;20044;-67
2022/01/29 07:44:15;;;;;;;14.88;3.90;;;8.70;99.90;;;;;;5024009;28;20045;-67
2022/01/29 07:46:41;;;;;;;12.23;4.05;;;8.70;99.90;;;;;;5024377;28;20067;-67
2022/01/29 07:49:07;;;;;;;21.00;4.38;;;8.60;99.90;;;;;;5011463;28;20621;-67
2022/01/29 07:51:33;;;;;;;22.00;5.18;;;8.60;99.90;;;;;;5012670;28;20029;-67
2022/01/29 07:53:58;;;;;;;14.43;3.85;;;8.70;99.90;;;;;;5021744;28;20034;-68
2022/01/29 07:56:24;;;;;;;14.13;4.57;;;8.80;99.90;;;;;;5019119;28;20033;-71
2022/01/29 07:58:51;;;;;;;9.07;3.40;;;8.70;99.90;;;;;;5020928;28;20157;-68
2022/01/29 08:01:17;;;;;;;13.10;4.05;;;8.80;99.90;;;;;;5021490;28;20448;-68
2022/01/29 08:03:46;;;;;;;13.88;4.13;;;8.80;99.90;;;;;;5022094;28;20382;-68
2022/01/29 08:06:13;;;;;;;11.45;2.97;;;8.80;99.90;;;;;;5010420;28;20137;-67
2022/01/29 08:08:38;;;;;;;16.75;3.42;;;8.80;99.90;;;;;;5021625;28;20030;-69
2022/01/29 08:11:04;;;;;;;9.70;3.30;;;8.80;99.90;;;;;;5018428;28;20397;-67
2022/01/29 08:13:30;;;;;;;10.73;3.30;;;8.80;99.90;;;;;;5023781;28;20102;-69
2022/01/29 08:15:55;;;;;;;17.00;3.22;;;8.80;99.90;;;;;;5018123;28;20122;-68
2022/01/29 08:18:21;;;;;;;13.82;3.90;;;8.90;99.90;;;;;;5021493;28;20065;-70
2022/01/29 08:20:46;;;;;;;18.92;3.67;;;8.90;99.90;;;;;;5023489;28;20608;-68
2022/01/29 08:23:12;;;;;;;13.07;3.72;;;8.90;99.90;;;;;;5018098;28;20022;-68
2022/01/29 08:25:38;;;;;;;11.05;2.88;;;8.90;99.90;;;;;;5009826;28;20092;-70
2022/01/29 08:28:05;;;;;;;24.50;4.32;;;8.90;99.90;;;;;;5025205;28;20056;-68
2022/01/29 08:30:31;;;;;;;23.92;4.18;;;8.90;99.90;;;;;;5017922;28;20037;-68
2022/01/29 08:32:56;;;;;;;12.48;3.70;;;8.90;99.90;;;;;;5006543;28;20551;-68
2022/01/29 08:35:22;;;;;;;18.60;3.35;;;8.90;99.90;;;;;;5005860;28;20048;-69
2022/01/29 08:37:48;;;;;;;14.88;3.30;;;9.00;99.90;;;;;;5022258;28;20034;-69
2022/01/29 08:40:13;;;;;;;17.20;4.43;;;9.00;99.90;;;;;;5001485;28;20520;-67
2022/01/29 08:42:40;;;;;;;10.70;3.15;;;9.00;99.90;;;;;;5021840;28;20029;-68
2022/01/29 08:45:07;;;;;;;19.15;3.83;;;9.00;99.90;;;;;;5002021;28;20696;-69
2022/01/29 08:47:33;;;;;;;17.08;4.03;;;9.00;99.90;;;;;;5023801;28;20034;-68
2022/01/29 08:50:00;;;;;;;18.17;3.33;;;9.10;99.90;;;;;;5021727;28;20413;-69
2022/01/29 08:52:27;;;;;;;17.05;3.63;;;9.10;99.90;;;;;;5027660;28;20534;-68
2022/01/29 08:54:53;;;;;;;7.95;2.33;;;9.10;99.90;;;;;;5006543;28;20117;-68
2022/01/29 08:57:18;;;;;;;9.73;2.35;;;9.20;99.90;;;;;;5025758;28;20124;-68
2022/01/29 08:59:44;;;;;;;21.48;3.10;;;9.20;99.90;;;;;;5024522;28;20065;-68
2022/01/29 09:02:09;;;;;;;8.15;2.38;;;9.30;99.90;;;;;;5023521;28;20041;-67
2022/01/29 09:04:35;;;;;;;11.43;3.17;;;9.30;99.90;;;;;;5023029;28;20042;-68
2022/01/29 09:07:01;;;;;;;6.88;1.95;;;9.30;99.90;;;;;;5025050;28;20041;-67
2022/01/29 09:09:26;;;;;;;10.68;2.25;;;9.30;99.90;;;;;;5008109;28;20038;-67
2022/01/29 09:11:53;;;;;;;17.73;3.22;;;9.40;99.90;;;;;;5021823;28;20141;-67
2022/01/29 09:14:20;;;;;;;8.65;2.58;;;9.40;99.90;;;;;;5009686;28;20053;-67
2022/01/29 09:16:46;;;;;;;7.82;1.90;;;9.50;99.90;;;;;;5026932;28;20059;-66
2022/01/29 09:19:12;;;;;;;9.68;2.00;;;9.40;99.90;;;;;;5023582;28;20034;-68
2022/01/29 09:21:38;;;;;;;10.55;1.90;;;9.50;99.90;;;;;;5020145;28;20037;-67
2022/01/29 09:24:04;;;;;;;6.70;2.30;;;9.50;99.90;;;;;;5026772;28;20042;-67
2022/01/29 09:26:29;;;;;;;11.35;1.50;;;9.60;99.90;;;;;;5025415;28;20026;-68
2022/01/29 09:28:55;;;;;;;7.53;1.52;;;9.60;99.90;;;;;;5019982;28;20200;-70
2022/01/29 09:31:21;;;;;;;11.75;1.25;;;9.60;99.90;;;;;;5014223;28;20032;-66
2022/01/29 09:33:46;;;;;;;6.18;1.48;;;9.70;99.90;;;;;;5025198;28;20034;-67
2022/01/29 09:36:12;;;;;;;6.15;1.83;;;9.60;99.90;;;;;;5000617;28;20034;-67
2022/01/29 09:38:38;;;;;;;8.98;1.50;;;9.70;99.90;;;;;;5020026;28;20461;-68
2022/01/29 09:41:04;;;;;;;10.77;2.22;;;9.70;99.90;;;;;;5014581;28;20045;-69
2022/01/29 09:43:32;;;;;;;6.85;1.00;;;9.80;99.90;;;;;;5040819;28;20034;-67
2022/01/29 09:45:59;;;;;;;8.25;1.27;;;9.90;99.90;;;;;;5020054;28;20038;-67
2022/01/29 09:48:28;;;;;;;12.10;1.98;;;9.90;99.90;;;;;;5011205;28;20497;-69
2022/01/29 09:50:54;;;;;;;9.60;1.55;;;9.90;99.90;;;;;;5026994;28;20460;-67
2022/01/29 09:53:20;;;;;;;5.32;1.50;;;10.00;99.90;;;;;;5009779;28;20055;-68
2022/01/29 09:55:49;;;;;;;5.70;1.85;;;10.00;99.90;;;;;;5020773;28;20478;-67
2022/01/29 09:58:15;;;;;;;7.45;1.92;;;10.10;99.90;;;;;;5027031;28;20068;-68
2022/01/29 10:00:41;;;;;;;6.05;2.88;;;10.10;99.90;;;;;;5023899;28;20663;-67
2022/01/29 10:03:10;;;;;;;4.93;0.98;;;10.10;99.90;;;;;;5019839;28;20509;-67
2022/01/29 10:05:40;;;;;;;4.78;0.80;;;10.10;99.90;;;;;;5013676;28;20044;-70
2022/01/29 10:08:06;;;;;;;10.10;2.60;;;10.20;99.90;;;;;;5023062;28;20564;-68
2022/01/29 10:10:54;;;;;;;3.22;0.52;;;10.20;99.90;;;;;;5026034;28;20045;-70
2022/01/29 10:13:25;;;;;;;9.15;1.00;;;10.20;99.90;;;;;;5019821;28;20038;-67
2022/01/29 10:15:52;;;;;;;6.38;1.33;;;10.20;99.90;;;;;;5002872;28;20157;-68
2022/01/29 10:18:22;;;;;;;11.65;1.75;;;10.20;99.90;;;;;;5027736;28;20083;-70
2022/01/29 10:20:50;;;;;;;10.60;1.00;;;10.30;99.90;;;;;;5019556;28;20038;-66
2022/01/29 10:23:16;;;;;;;5.70;1.83;;;10.40;99.90;;;;;;5019577;28;20037;-67
2022/01/29 10:25:44;;;;;;;4.75;1.33;;;10.50;99.90;;;;;;5017423;28;20041;-67
2022/01/29 10:28:14;;;;;;;5.18;0.80;;;10.60;99.90;;;;;;5004721;28;20382;-68
2022/01/29 10:30:48;;;;;;;9.00;1.10;;;10.60;99.90;;;;;;5019581;28;20054;-70
2022/01/29 10:33:18;;;;;;;10.85;1.52;;;10.60;99.90;;;;;;5005459;28;20041;-67
2022/01/29 10:35:45;;;;;;;6.95;1.33;;;10.70;99.90;;;;;;5006323;28;20540;-70
2022/01/29 10:38:11;;;;;;;5.55;1.63;;;10.90;99.90;;;;;;5022335;28;20486;-68
2022/01/29 10:40:38;;;;;;;3.78;0.80;;;10.90;99.90;;;;;;5022718;28;20080;-68
2022/01/29 10:43:05;;;;;;;8.43;1.15;;;10.90;99.90;;;;;;5022306;28;20549;-69
2022/01/29 10:45:35;;;;;;;2.47;0.50;;;11.00;99.90;;;;;;5022703;28;20747;-68
2022/01/29 10:48:05;;;;;;;2.92;0.95;;;11.20;99.90;;;;;;5011293;28;20116;-68
2022/01/29 10:50:31;;;;;;;1.98;0.60;;;11.20;99.90;;;;;;5011177;28;20120;-68
2022/01/29 10:53:18;;;;;;;1.83;0.88;;;11.40;99.90;;;;;;5010108;28;20034;-68
2022/01/29 10:56:00;;;;;;;4.72;0.45;;;11.40;99.90;;;;;;5026940;28;20041;-68
2022/01/29 10:58:26;;;;;;;7.22;1.38;;;11.50;99.90;;;;;;5010942;28;20041;-68
2022/01/29 11:01:18;;;;;;;5.35;0.65;;;11.60;99.90;;;;;;5026834;28;20037;-68
2022/01/29 11:03:44;;;;;;;3.38;0.73;;;11.60;99.90;;;;;;5026468;28;20041;-71
2022/01/29 11:06:16;;;;;;;4.28;0.57;;;11.60;99.90;;;;;;5020018;28;20045;-68
2022/01/29 11:08:43;;;;;;;3.38;0.52;;;11.60;99.90;;;;;;5022588;28;20042;-68
2022/01/29 11:11:10;;;;;;;2.45;0.52;;;11.60;99.90;;;;;;5019206;28;20045;-68
2022/01/29 11:13:37;;;;;;;1.98;0.85;;;11.50;99.90;;;;;;5011235;28;20160;-68
2022/01/29 11:16:04;;;;;;;5.05;0.70;;;11.50;99.90;;;;;;5011326;28;20050;-68
2022/01/29 11:18:34;;;;;;;1.50;0.40;;;11.40;99.90;;;;;;5021291;28;20103;-68
2022/01/29 11:21:01;;;;;;;6.20;1.65;;;11.40;99.90;;;;;;5009232;28;20038;-68
2022/01/29 11:23:28;;;;;;;3.10;0.82;;;11.30;99.90;;;;;;5023390;28;20038;-67
2022/01/29 11:25:59;;;;;;;2.67;0.90;;;11.30;99.90;;;;;;5010279;28;20103;-69
2022/01/29 11:28:27;;;;;;;5.82;0.68;;;11.40;99.90;;;;;;5019108;28;20056;-73
2022/01/29 11:31:28;;;;;;;5.55;1.15;;;11.40;99.90;;;;;;5021819;28;20034;-68
2022/01/29 11:34:00;;;;;;;;;;;11.50;99.90;;;;;;4973050;28;20037;-68
2022/01/29 11:36:47;;;;;;;7.78;0.60;;;11.50;99.90;;;;;;5001477;28;19917;-68
2022/01/29 11:39:24;;;;;;;4.72;0.80;;;11.50;99.90;;;;;;5005192;28;20034;-67
2022/01/29 11:42:14;;;;;;;4.15;0.82;;;11.60;99.90;;;;;;5026936;28;20771;-69
2022/01/29 11:44:41;;;;;;;7.80;1.65;;;11.60;99.90;;;;;;5017063;28;20030;-68
2022/01/29 11:47:36;;;;;;;2.20;0.50;;;11.60;99.90;;;;;;5018617;28;20516;-68
2022/01/29 11:50:37;;;;;;;7.68;0.50;;;11.70;99.90;;;;;;4998988;28;20037;-68
2022/01/29 11:53:03;;;;;;;;;;;11.70;99.90;;;;;;4930926;28;20047;-68
2022/01/29 11:55:36;;;;;;;3.28;0.50;;;11.70;99.90;;;;;;4986096;28;19964;-68
2022/01/29 11:58:18;;;;;;;9.32;0.70;;;11.70;99.90;;;;;;5018773;28;20061;-68
2022/01/29 12:00:55;;;;;;;2.78;1.30;;;11.80;99.90;;;;;;5016287;28;20033;-68
2022/01/29 12:03:37;;;;;;;4.32;0.88;;;11.70;99.90;;;;;;5002588;28;20034;-68
2022/01/29 12:08:41;;;;;;;4.05;0.40;;;11.70;99.90;;;;;;5019765;28;20173;-68
2022/01/29 12:11:12;;;;;;;6.85;0.50;;;11.70;99.90;;;;;;5017802;28;20498;-68
2022/01/29 12:13:37;;;;;;;1.38;0.35;;;11.80;99.90;;;;;;5017604;28;20410;-68
2022/01/29 12:16:05;;;;;;;5.85;0.50;;;11.70;99.90;;;;;;5023437;28;20037;-68
2022/01/29 12:18:35;;;;;;;3.80;0.70;;;11.80;99.90;;;;;;5017014;28;20037;-68
2022/01/29 12:21:02;;;;;;;2.10;0.55;;;11.90;99.90;;;;;;5018156;28;20091;-68
2022/01/29 12:23:28;;;;;;;2.13;0.40;;;11.90;99.90;;;;;;5014725;28;20045;-68
2022/01/29 12:25:59;;;;;;;2.85;0.47;;;11.90;99.90;;;;;;5019700;28;20041;-68
2022/01/29 12:28:26;;;;;;;2.25;0.50;;;12.00;99.90;;;;;;5021373;28;20037;-68
2022/01/29 12:30:52;;;;;;;7.82;0.60;;;12.00;99.90;;;;;;5008637;28;21300;-68
2022/01/29 12:33:20;;;;;;;4.32;0.45;;;12.10;99.90;;;;;;5020270;28;20393;-68
2022/01/29 12:35:56;;;;;;;3.22;1.15;;;12.10;99.90;;;;;;5008041;28;20436;-69
2022/01/29 12:38:32;;;;;;;5.03;0.95;;;12.10;99.90;;;;;;5019655;28;20115;-68
2022/01/29 12:41:06;;;;;;;1.75;0.60;;;12.20;99.90;;;;;;5018247;28;20564;-69
2022/01/29 12:43:40;;;;;;;2.70;0.50;;;12.20;99.90;;;;;;5028004;28;20037;-68
2022/01/29 12:46:17;;;;;;;3.42;0.70;;;12.20;99.90;;;;;;5010553;28;20040;-68
2022/01/29 12:48:57;;;;;;;6.75;1.27;;;12.20;99.90;;;;;;5021705;28;20033;-67
2022/01/29 12:51:22;;;;;;;2.17;0.55;;;12.30;99.90;;;;;;5018373;28;20410;-68
2022/01/29 12:53:58;;;;;;;7.15;0.77;;;12.20;99.90;;;;;;5017480;28;20030;-68
2022/01/29 12:56:35;;;;;;;3.45;0.50;;;12.10;99.90;;;;;;5027705;28;20083;-67
2022/01/29 12:59:03;;;;;;;4.07;1.33;;;12.10;99.90;;;;;;5010178;28;20530;-70
2022/01/29 13:01:29;;;;;;;2.20;0.65;;;12.10;99.90;;;;;;5021746;28;20034;-70
2022/01/29 13:04:04;;;;;;;7.07;0.60;;;12.20;99.90;;;;;;5027681;28;20126;-68